^^
Station Historical Data
Daily Summary for March 10, 2019 Units:  English    Metric   Both
« Previous Day
Next Day »
Daily Weekly Monthly Yearly Custom
  High: Low: Average:
Temperature: 22.3 °F 5.5 °F 14 °F
Dew Point: 17.1 °F 2.7 °F 10.4 °F
Humidity: 91% 79% 85%
Wind Speed: 12.0mph 0.0mph 5.4mph
Wind Gust: 14.0mph - -
Wind- - West
Pressure: 30.29 in 29.95 in -
Precipitation: 0.68 in    
Historical Graphs
 
 
Tabular Data for March 10, 2019
Time Temperature Dew Point Pressure Wind Wind Speed Wind Gust Humidity Rainfall Rate (Hourly) solar Conditions
00:04 15.8 °F 12.1 °F 29.95 in WNW 9.0 mph 13.0 mph 85% 0.00 in 0.00 W/m2
00:09 15.9 °F 12.5 °F 29.95 in WNW 9.0 mph 13.0 mph 86% 0.00 in 0.00 W/m2
00:14 15.9 °F 12.2 °F 29.95 in WNW 12.0 mph 13.0 mph 85% 0.00 in 0.00 W/m2
00:19 15.7 °F 12.0 °F 29.95 in WNW 9.0 mph 14.0 mph 85% 0.00 in 0.00 W/m2
00:24 15.3 °F 11.6 °F 29.95 in WNW 8.0 mph 14.0 mph 85% 0.00 in 0.00 W/m2
00:29 15.3 °F 11.9 °F 29.95 in NW 7.0 mph 13.0 mph 86% 0.00 in 0.00 W/m2
00:34 15.4 °F 11.7 °F 29.95 in WNW 7.0 mph 13.0 mph 85% 0.00 in 0.00 W/m2
00:39 15.5 °F 11.8 °F 29.95 in WNW 8.0 mph 13.0 mph 85% 0.00 in 0.00 W/m2
00:44 15.1 °F 11.4 °F 29.95 in WNW 10.0 mph 13.0 mph 85% 0.00 in 0.00 W/m2
00:49 14.8 °F 11.1 °F 29.95 in NW 12.0 mph 13.0 mph 85% 0.00 in 0.00 W/m2
00:54 14.9 °F 11.2 °F 29.95 in WNW 10.0 mph 13.0 mph 85% 0.00 in 0.00 W/m2
00:59 14.9 °F 11.2 °F 29.96 in WNW 11.0 mph 14.0 mph 85% 0.00 in 0.00 W/m2
01:04 15.0 °F 11.3 °F 29.96 in NW 12.0 mph 14.0 mph 85% 0.00 in 0.00 W/m2
01:09 15.0 °F 11.3 °F 29.96 in WNW 10.0 mph 14.0 mph 85% 0.00 in 0.00 W/m2
01:14 14.9 °F 11.2 °F 29.96 in NW 8.0 mph 14.0 mph 85% 0.00 in 0.00 W/m2
01:19 14.5 °F 10.8 °F 29.96 in NW 8.0 mph 12.0 mph 85% 0.00 in 0.00 W/m2
01:24 13.8 °F 9.9 °F 29.96 in NW 8.0 mph 11.0 mph 84% 0.00 in 0.00 W/m2
01:29 13.7 °F 10.0 °F 29.96 in NW 6.0 mph 11.0 mph 85% 0.00 in 0.00 W/m2
01:34 13.4 °F 9.7 °F 29.97 in NW 6.0 mph 11.0 mph 85% 0.00 in 0.00 W/m2
01:39 13.2 °F 9.5 °F 29.97 in NW 5.0 mph 9.0 mph 85% 0.00 in 0.00 W/m2
01:44 13.4 °F 10.0 °F 29.97 in NW 6.0 mph 9.0 mph 86% 0.00 in 0.00 W/m2
01:49 13.5 °F 10.1 °F 29.97 in WNW 6.0 mph 9.0 mph 86% 0.00 in 0.00 W/m2
01:54 13.3 °F 9.9 °F 29.97 in NW 6.0 mph 10.0 mph 86% 0.00 in 0.00 W/m2
01:59 13.6 °F 10.5 °F 29.97 in NW 8.0 mph 11.0 mph 87% 0.00 in 0.00 W/m2
03:04 14.0 °F 10.6 °F 29.97 in WNW 9.0 mph 14.0 mph 86% 0.00 in 0.00 W/m2
03:09 13.9 °F 10.5 °F 29.98 in NW 5.0 mph 14.0 mph 86% 0.00 in 0.00 W/m2
03:14 13.6 °F 10.2 °F 29.98 in NW 7.0 mph 11.0 mph 86% 0.00 in 0.00 W/m2
03:19 13.3 °F 9.9 °F 29.98 in West 6.0 mph 11.0 mph 86% 0.00 in 0.00 W/m2
03:24 12.6 °F 8.9 °F 29.98 in WNW 6.0 mph 10.0 mph 85% 0.00 in 0.00 W/m2
03:29 12.3 °F 8.9 °F 29.98 in WNW 8.0 mph 13.0 mph 86% 0.00 in 0.00 W/m2
03:34 11.6 °F 8.0 °F 29.98 in West 6.0 mph 13.0 mph 85% 0.00 in 0.00 W/m2
03:39 10.8 °F 7.2 °F 29.98 in West 7.0 mph 10.0 mph 85% 0.00 in 0.00 W/m2
03:44 10.7 °F 7.6 °F 29.98 in WNW 8.0 mph 9.0 mph 87% 0.00 in 0.00 W/m2
03:49 10.9 °F 7.8 °F 29.99 in West 6.0 mph 10.0 mph 87% 0.00 in 0.00 W/m2
03:54 11.3 °F 8.4 °F 29.99 in WNW 8.0 mph 12.0 mph 88% 0.00 in 0.00 W/m2
03:59 11.3 °F 8.2 °F 29.99 in WNW 7.0 mph 12.0 mph 87% 0.00 in 0.00 W/m2
04:04 11.6 °F 8.7 °F 29.99 in WNW 9.0 mph 11.0 mph 88% 0.00 in 0.00 W/m2
04:09 11.6 °F 8.5 °F 29.99 in West 9.0 mph 11.0 mph 87% 0.00 in 0.00 W/m2
04:14 10.9 °F 7.5 °F 30.00 in West 7.0 mph 10.0 mph 86% 0.00 in 0.00 W/m2
04:19 10.2 °F 7.1 °F 30.00 in WNW 8.0 mph 11.0 mph 87% 0.00 in 0.00 W/m2
04:24 10.7 °F 7.8 °F 30.00 in West 8.0 mph 13.0 mph 88% 0.00 in 0.00 W/m2
04:29 10.0 °F 6.9 °F 30.00 in West 7.0 mph 13.0 mph 87% 0.00 in 0.00 W/m2
04:34 9.4 °F 6.3 °F 30.00 in West 6.0 mph 10.0 mph 87% 0.00 in 0.00 W/m2
04:39 8.9 °F 5.8 °F 30.00 in West 3.0 mph 8.0 mph 87% 0.00 in 0.00 W/m2
04:44 8.6 °F 5.5 °F 30.00 in West 3.0 mph 7.0 mph 87% 0.00 in 0.00 W/m2
04:49 8.3 °F 5.2 °F 30.01 in WSW 4.0 mph 5.0 mph 87% 0.00 in 0.00 W/m2
04:54 8.0 °F 4.9 °F 30.01 in WSW 2.0 mph 5.0 mph 87% 0.00 in 0.00 W/m2
04:59 7.8 °F 5.0 °F 30.01 in WSW 3.0 mph 5.0 mph 88% 0.00 in 0.00 W/m2
05:04 7.8 °F 5.0 °F 30.01 in West 5.0 mph 7.0 mph 88% 0.00 in 0.00 W/m2
05:09 8.1 °F 5.5 °F 30.01 in West 6.0 mph 8.0 mph 89% 0.00 in 0.00 W/m2
05:14 8.2 °F 5.6 °F 30.01 in West 5.0 mph 8.0 mph 89% 0.00 in 0.00 W/m2
05:19 7.9 °F 5.3 °F 30.01 in West 6.0 mph 7.0 mph 89% 0.00 in 0.00 W/m2
05:24 7.6 °F 4.8 °F 30.01 in West 4.0 mph 7.0 mph 88% 0.00 in 0.00 W/m2
05:29 8.0 °F 5.4 °F 30.01 in West 5.0 mph 8.0 mph 89% 0.00 in 0.00 W/m2
05:34 8.3 °F 6.0 °F 30.02 in West 4.0 mph 8.0 mph 90% 0.00 in 0.00 W/m2
05:39 8.1 °F 5.5 °F 30.02 in West 5.0 mph 8.0 mph 89% 0.00 in 0.00 W/m2
05:44 8.1 °F 5.5 °F 30.01 in West 5.0 mph 7.0 mph 89% 0.00 in 0.00 W/m2
05:49 8.0 °F 5.4 °F 30.01 in West 6.0 mph 7.0 mph 89% 0.00 in 0.00 W/m2
05:54 8.3 °F 6.0 °F 30.01 in WNW 5.0 mph 7.0 mph 90% 0.00 in 0.00 W/m2
05:59 8.4 °F 5.8 °F 30.02 in West 6.0 mph 7.0 mph 89% 0.00 in 0.00 W/m2
06:04 8.5 °F 5.9 °F 30.02 in West 7.0 mph 8.0 mph 89% 0.00 in 0.00 W/m2
06:09 8.6 °F 6.0 °F 30.02 in WNW 6.0 mph 8.0 mph 89% 0.00 in 0.00 W/m2
06:14 8.5 °F 5.9 °F 30.02 in WNW 6.0 mph 8.0 mph 89% 0.00 in 0.00 W/m2
06:19 8.2 °F 5.4 °F 30.02 in West 5.0 mph 8.0 mph 88% 0.00 in 0.00 W/m2
06:24 7.4 °F 4.6 °F 30.03 in West 7.0 mph 8.0 mph 88% 0.00 in 0.00 W/m2
06:29 7.4 °F 4.8 °F 30.03 in West 7.0 mph 8.0 mph 89% 0.00 in 0.00 W/m2
06:34 7.5 °F 4.9 °F 30.03 in WNW 5.0 mph 9.0 mph 89% 0.00 in 0.00 W/m2
06:39 8.1 °F 5.5 °F 30.03 in WNW 6.0 mph 9.0 mph 89% 0.00 in 0.00 W/m2
06:44 7.9 °F 5.3 °F 30.03 in WNW 6.0 mph 9.0 mph 89% 0.00 in 0.00 W/m2
06:49 7.5 °F 4.7 °F 30.04 in West 5.0 mph 9.0 mph 88% 0.00 in 0.00 W/m2
06:54 6.9 °F 4.1 °F 30.04 in West 5.0 mph 6.0 mph 88% 0.00 in 0.00 W/m2
06:59 6.6 °F 3.8 °F 30.04 in West 4.0 mph 6.0 mph 88% 0.00 in 0.00 W/m2
07:04 5.9 °F 3.1 °F 30.04 in West 3.0 mph 6.0 mph 88% 0.00 in 0.00 W/m2
07:09 5.5 °F 2.7 °F 30.04 in WNW 4.0 mph 5.0 mph 88% 0.00 in 0.00 W/m2
07:14 6.2 °F 3.7 °F 30.05 in West 6.0 mph 7.0 mph 89% 0.00 in 0.00 W/m2
07:19 6.4 °F 3.9 °F 30.05 in West 5.0 mph 8.0 mph 89% 0.00 in 0.00 W/m2
07:24 6.5 °F 3.9 °F 30.05 in West 4.0 mph 8.0 mph 89% 0.00 in 0.00 W/m2
07:29 6.4 °F 3.9 °F 30.05 in West 4.0 mph 5.0 mph 89% 0.00 in 0.00 W/m2
07:34 6.2 °F 3.7 °F 30.05 in West 5.0 mph 6.0 mph 89% 0.00 in 0.00 W/m2
07:39 6.0 °F 3.5 °F 30.06 in WNW 5.0 mph 6.0 mph 89% 0.00 in 0.00 W/m2
07:44 6.2 °F 3.7 °F 30.06 in WNW 4.0 mph 7.0 mph 89% 0.00 in 0.00 W/m2
07:49 6.2 °F 3.7 °F 30.06 in WNW 5.0 mph 7.0 mph 89% 0.00 in 0.00 W/m2
07:54 6.3 °F 3.8 °F 30.06 in WNW 6.0 mph 7.0 mph 89% 0.00 in 0.00 W/m2
07:59 6.3 °F 3.8 °F 30.06 in NW 5.0 mph 7.0 mph 89% 0.00 in 0.00 W/m2
08:04 6.5 °F 3.9 °F 30.06 in WNW 5.0 mph 7.0 mph 89% 0.00 in 5.00 W/m2
08:09 6.7 °F 4.1 °F 30.05 in WNW 6.0 mph 7.0 mph 89% 0.00 in 7.00 W/m2
08:14 7.1 °F 4.5 °F 30.06 in WNW 5.0 mph 7.0 mph 89% 0.00 in 9.00 W/m2
08:19 7.1 °F 4.5 °F 30.06 in WNW 4.0 mph 7.0 mph 89% 0.00 in 12.00 W/m2
08:24 6.4 °F 3.6 °F 30.06 in West 5.0 mph 6.0 mph 88% 0.00 in 14.00 W/m2
08:29 5.8 °F 2.8 °F 30.06 in West 6.0 mph 6.0 mph 87% 0.00 in 16.00 W/m2
08:34 5.8 °F 3.0 °F 30.06 in West 6.0 mph 7.0 mph 88% 0.00 in 19.00 W/m2
08:39 5.8 °F 3.0 °F 30.06 in West 4.0 mph 7.0 mph 88% 0.00 in 21.00 W/m2
08:44 5.9 °F 3.4 °F 30.06 in West 5.0 mph 7.0 mph 89% 0.00 in 21.00 W/m2
08:49 6.1 °F 3.6 °F 30.06 in West 5.0 mph 7.0 mph 89% 0.00 in 25.00 W/m2
08:54 6.4 °F 3.9 °F 30.06 in WNW 5.0 mph 7.0 mph 89% 0.00 in 26.00 W/m2
08:59 6.7 °F 4.1 °F 30.06 in WNW 5.0 mph 7.0 mph 89% 0.00 in 30.00 W/m2
09:04 6.5 °F 3.7 °F 30.07 in WNW 5.0 mph 6.0 mph 88% 0.00 in 32.00 W/m2
09:09 6.4 °F 3.6 °F 30.07 in WNW 5.0 mph 6.0 mph 88% 0.00 in 37.00 W/m2
09:14 6.1 °F 3.3 °F 30.07 in WNW 4.0 mph 5.0 mph 88% 0.00 in 65.00 W/m2
09:19 6.1 °F 3.3 °F 30.08 in WSW 4.0 mph 6.0 mph 88% 0.00 in 104.00 W/m2
09:24 6.4 °F 3.6 °F 30.08 in WSW 4.0 mph 6.0 mph 88% 0.00 in 127.00 W/m2
09:29 6.3 °F 3.5 °F 30.08 in WSW 3.0 mph 5.0 mph 88% 0.00 in 109.00 W/m2
09:34 6.2 °F 3.4 °F 30.08 in WSW 3.0 mph 4.0 mph 88% 0.00 in 97.00 W/m2
09:39 6.2 °F 3.4 °F 30.09 in WSW 4.0 mph 6.0 mph 88% 0.00 in 121.00 W/m2
09:44 6.3 °F 3.5 °F 30.09 in WSW 5.0 mph 6.0 mph 88% 0.00 in 123.00 W/m2
09:49 6.4 °F 3.6 °F 30.09 in WSW 4.0 mph 6.0 mph 88% 0.00 in 176.00 W/m2
09:54 6.5 °F 3.7 °F 30.09 in WSW 4.0 mph 6.0 mph 88% 0.00 in 105.00 W/m2
09:59 7.1 °F 4.5 °F 30.09 in SW 3.0 mph 6.0 mph 89% 0.00 in 199.00 W/m2
10:04 8.0 °F 5.4 °F 30.09 in SW 2.0 mph 5.0 mph 89% 0.00 in 274.00 W/m2
10:09 8.8 °F 6.2 °F 30.10 in WSW 5.0 mph 6.0 mph 89% 0.00 in 390.00 W/m2
10:14 9.4 °F 6.6 °F 30.10 in WSW 3.0 mph 6.0 mph 88% 0.00 in 504.00 W/m2
10:19 9.8 °F 6.7 °F 30.10 in West 5.0 mph 6.0 mph 87% 0.00 in 352.00 W/m2
10:24 10.1 °F 7.0 °F 30.10 in West 5.0 mph 6.0 mph 87% 0.00 in 276.00 W/m2
10:29 10.3 °F 7.2 °F 30.11 in West 6.0 mph 7.0 mph 87% 0.00 in 269.00 W/m2
10:34 10.4 °F 7.3 °F 30.11 in West 5.0 mph 8.0 mph 87% 0.00 in 236.00 W/m2
10:39 10.3 °F 6.9 °F 30.11 in WNW 4.0 mph 8.0 mph 86% 0.67 in 214.00 W/m2
10:44 10.4 °F 7.0 °F 30.11 in West 2.0 mph 7.0 mph 86% 0.67 in 272.00 W/m2
10:49 10.4 °F 7.0 °F 30.12 in West 4.0 mph 6.0 mph 86% 0.67 in 274.00 W/m2
10:54 10.4 °F 6.8 °F 30.12 in West 3.0 mph 5.0 mph 85% 0.67 in 346.00 W/m2
10:59 10.6 °F 7.0 °F 30.12 in West 2.0 mph 5.0 mph 85% 0.67 in 373.00 W/m2
11:04 10.8 °F 7.2 °F 30.12 in West 4.0 mph 5.0 mph 85% 0.67 in 380.00 W/m2
11:09 10.9 °F 7.3 °F 30.12 in West 3.0 mph 5.0 mph 85% 0.67 in 403.00 W/m2
11:14 11.2 °F 7.3 °F 30.12 in West 3.0 mph 5.0 mph 84% 0.67 in 454.00 W/m2
11:19 11.5 °F 7.6 °F 30.13 in West 4.0 mph 5.0 mph 84% 0.67 in 499.00 W/m2
11:24 11.9 °F 8.0 °F 30.13 in West 5.0 mph 6.0 mph 84% 0.67 in 529.00 W/m2
11:29 12.5 °F 8.6 °F 30.13 in West 5.0 mph 7.0 mph 84% 0.67 in 559.00 W/m2
11:34 12.8 °F 8.6 °F 30.13 in West 4.0 mph 7.0 mph 83% 0.67 in 482.00 W/m2
11:39 13.1 °F 9.2 °F 30.13 in WSW 7.0 mph 7.0 mph 84% 0.00 in 482.00 W/m2
11:44 13.3 °F 9.1 °F 30.13 in WSW 6.0 mph 8.0 mph 83% 0.00 in 548.00 W/m2
11:49 13.7 °F 9.5 °F 30.13 in WSW 5.0 mph 8.0 mph 83% 0.00 in 571.00 W/m2
11:54 13.9 °F 9.7 °F 30.14 in West 4.0 mph 7.0 mph 83% 0.00 in 577.00 W/m2
11:59 14.1 °F 9.9 °F 30.14 in WSW 8.0 mph 8.0 mph 83% 0.00 in 585.00 W/m2
12:04 14.2 °F 9.7 °F 30.14 in WSW 6.0 mph 9.0 mph 82% 0.00 in 601.00 W/m2
12:09 14.4 °F 9.9 °F 30.14 in WSW 7.0 mph 9.0 mph 82% 0.00 in 585.00 W/m2
12:14 14.7 °F 10.2 °F 30.14 in WSW 6.0 mph 9.0 mph 82% 0.00 in 603.00 W/m2
12:19 15.0 °F 10.5 °F 30.14 in WSW 6.0 mph 8.0 mph 82% 0.00 in 615.00 W/m2
12:24 15.5 °F 11.0 °F 30.15 in WSW 7.0 mph 8.0 mph 82% 0.01 in 621.00 W/m2
12:29 16.1 °F 11.6 °F 30.14 in West 5.0 mph 8.0 mph 82% 0.01 in 628.00 W/m2
12:34 16.6 °F 12.1 °F 30.15 in West 7.0 mph 9.0 mph 82% 0.01 in 633.00 W/m2
12:39 16.7 °F 11.9 °F 30.15 in WSW 7.0 mph 9.0 mph 81% 0.01 in 640.00 W/m2
12:44 16.9 °F 12.1 °F 30.15 in West 5.0 mph 9.0 mph 81% 0.01 in 645.00 W/m2
12:49 17.2 °F 12.4 °F 30.15 in West 5.0 mph 8.0 mph 81% 0.01 in 650.00 W/m2
12:54 17.5 °F 12.4 °F 30.15 in West 2.0 mph 6.0 mph 80% 0.01 in 657.00 W/m2
12:59 18.0 °F 12.9 °F 30.15 in WSW 4.0 mph 6.0 mph 80% 0.01 in 661.00 W/m2
13:04 18.4 °F 13.3 °F 30.16 in West 4.0 mph 6.0 mph 80% 0.01 in 661.00 W/m2
13:09 18.8 °F 13.7 °F 30.16 in West 6.0 mph 8.0 mph 80% 0.01 in 666.00 W/m2
13:14 18.9 °F 13.7 °F 30.16 in West 8.0 mph 11.0 mph 80% 0.01 in 671.00 W/m2
13:19 18.7 °F 13.6 °F 30.16 in West 8.0 mph 11.0 mph 80% 0.01 in 677.00 W/m2
13:24 18.9 °F 14.0 °F 30.16 in West 8.0 mph 11.0 mph 81% 0.00 in 680.00 W/m2
13:29 19.1 °F 14.2 °F 30.16 in West 9.0 mph 12.0 mph 81% 0.00 in 684.00 W/m2
13:34 19.1 °F 14.2 °F 30.16 in West 10.0 mph 12.0 mph 81% 0.00 in 686.00 W/m2
13:39 19.1 °F 14.2 °F 30.16 in WSW 10.0 mph 12.0 mph 81% 0.00 in 687.00 W/m2
13:44 19.3 °F 14.4 °F 30.16 in West 8.0 mph 13.0 mph 81% 0.00 in 689.00 W/m2
13:49 19.5 °F 14.6 °F 30.17 in West 12.0 mph 13.0 mph 81% 0.00 in 691.00 W/m2
13:54 19.6 °F 14.7 °F 30.17 in West 9.0 mph 13.0 mph 81% 0.00 in 693.00 W/m2
13:59 19.7 °F 14.8 °F 30.17 in WNW 10.0 mph 13.0 mph 81% 0.00 in 693.00 W/m2
14:04 20.0 °F 15.1 °F 30.16 in WNW 10.0 mph 13.0 mph 81% 0.00 in 691.00 W/m2
14:09 19.8 °F 14.9 °F 30.16 in West 9.0 mph 13.0 mph 81% 0.00 in 691.00 W/m2
14:14 19.9 °F 15.0 °F 30.17 in WNW 9.0 mph 14.0 mph 81% 0.00 in 687.00 W/m2
14:19 20.2 °F 15.3 °F 30.17 in West 7.0 mph 14.0 mph 81% 0.00 in 686.00 W/m2
14:24 20.4 °F 15.5 °F 30.17 in West 11.0 mph 12.0 mph 81% 0.00 in 684.00 W/m2
14:29 20.6 °F 15.7 °F 30.17 in West 8.0 mph 11.0 mph 81% 0.00 in 680.00 W/m2
14:34 20.6 °F 15.7 °F 30.17 in WNW 10.0 mph 11.0 mph 81% 0.00 in 680.00 W/m2
14:39 20.6 °F 15.7 °F 30.17 in West 10.0 mph 13.0 mph 81% 0.00 in 673.00 W/m2
14:44 20.7 °F 15.8 °F 30.17 in West 10.0 mph 13.0 mph 81% 0.00 in 675.00 W/m2
14:49 20.8 °F 15.9 °F 30.17 in West 7.0 mph 13.0 mph 81% 0.00 in 668.00 W/m2
14:54 21.1 °F 16.2 °F 30.17 in WNW 6.0 mph 11.0 mph 81% 0.00 in 663.00 W/m2
14:59 21.3 °F 16.1 °F 30.17 in WSW 10.0 mph 12.0 mph 80% 0.00 in 652.00 W/m2
15:04 21.5 °F 16.3 °F 30.17 in WSW 9.0 mph 12.0 mph 80% 0.00 in 656.00 W/m2
15:09 21.6 °F 16.4 °F 30.17 in WNW 9.0 mph 11.0 mph 80% 0.00 in 645.00 W/m2
15:14 21.5 °F 16.3 °F 30.17 in West 8.0 mph 11.0 mph 80% 0.00 in 638.00 W/m2
15:19 21.5 °F 16.3 °F 30.17 in West 7.0 mph 12.0 mph 80% 0.00 in 631.00 W/m2
15:24 21.4 °F 16.2 °F 30.17 in West 10.0 mph 12.0 mph 80% 0.00 in 628.00 W/m2
15:29 21.5 °F 16.6 °F 30.17 in West 7.0 mph 12.0 mph 81% 0.00 in 624.00 W/m2
15:34 21.6 °F 16.4 °F 30.17 in WNW 9.0 mph 12.0 mph 80% 0.00 in 612.00 W/m2
15:39 21.6 °F 16.7 °F 30.17 in West 8.0 mph 12.0 mph 81% 0.00 in 594.00 W/m2
15:44 21.7 °F 16.8 °F 30.17 in West 8.0 mph 11.0 mph 81% 0.00 in 591.00 W/m2
15:49 21.7 °F 16.8 °F 30.17 in West 9.0 mph 11.0 mph 81% 0.00 in 582.00 W/m2
15:54 21.7 °F 16.5 °F 30.17 in WNW 9.0 mph 12.0 mph 80% 0.00 in 580.00 W/m2
15:59 21.7 °F 16.5 °F 30.18 in West 9.0 mph 12.0 mph 80% 0.00 in 571.00 W/m2
16:04 21.7 °F 16.5 °F 30.18 in WNW 9.0 mph 11.0 mph 80% 0.00 in 561.00 W/m2
16:09 21.6 °F 16.4 °F 30.18 in West 8.0 mph 11.0 mph 80% 0.00 in 554.00 W/m2
16:14 21.7 °F 16.5 °F 30.18 in West 9.0 mph 11.0 mph 80% 0.00 in 541.00 W/m2
16:19 21.8 °F 16.6 °F 30.18 in WSW 7.0 mph 11.0 mph 80% 0.00 in 531.00 W/m2
16:24 22.1 °F 16.9 °F 30.18 in West 7.0 mph 10.0 mph 80% 0.00 in 522.00 W/m2
16:29 22.0 °F 16.8 °F 30.18 in West 9.0 mph 11.0 mph 80% 0.00 in 510.00 W/m2
16:34 22.0 °F 16.8 °F 30.18 in West 6.0 mph 11.0 mph 80% 0.00 in 497.00 W/m2
16:39 22.1 °F 16.9 °F 30.19 in West 5.0 mph 11.0 mph 80% 0.00 in 489.00 W/m2
16:44 22.0 °F 16.8 °F 30.19 in West 4.0 mph 10.0 mph 80% 0.00 in 446.00 W/m2
16:49 22.1 °F 16.9 °F 30.19 in West 5.0 mph 9.0 mph 80% 0.00 in 585.00 W/m2
16:54 22.3 °F 17.1 °F 30.19 in WNW 8.0 mph 9.0 mph 80% 0.00 in 499.00 W/m2
16:59 22.0 °F 16.5 °F 30.19 in West 7.0 mph 9.0 mph 79% 0.00 in 294.00 W/m2
17:04 21.9 °F 16.7 °F 30.19 in West 6.0 mph 9.0 mph 80% 0.00 in 318.00 W/m2
17:09 21.8 °F 16.6 °F 30.19 in WSW 5.0 mph 9.0 mph 80% 0.00 in 316.00 W/m2
17:14 21.9 °F 16.7 °F 30.19 in West 8.0 mph 9.0 mph 80% 0.00 in 332.00 W/m2
17:19 21.9 °F 16.7 °F 30.19 in West 9.0 mph 9.0 mph 80% 0.00 in 251.00 W/m2
17:24 21.6 °F 16.7 °F 30.19 in West 9.0 mph 10.0 mph 81% 0.00 in 251.00 W/m2
17:29 21.7 °F 16.8 °F 30.20 in West 7.0 mph 10.0 mph 81% 0.00 in 258.00 W/m2
17:34 21.7 °F 16.8 °F 30.19 in West 5.0 mph 10.0 mph 81% 0.00 in 202.00 W/m2
17:39 21.6 °F 16.7 °F 30.20 in WSW 5.0 mph 9.0 mph 81% 0.00 in 192.00 W/m2
17:44 21.5 °F 16.6 °F 30.20 in West 9.0 mph 10.0 mph 81% 0.00 in 216.00 W/m2
17:49 21.7 °F 17.1 °F 30.20 in West 6.0 mph 10.0 mph 82% 0.00 in 248.00 W/m2
17:54 21.7 °F 16.8 °F 30.20 in West 8.0 mph 10.0 mph 81% 0.00 in 169.00 W/m2
17:59 21.5 °F 16.6 °F 30.20 in West 9.0 mph 9.0 mph 81% 0.00 in 153.00 W/m2
18:04 21.3 °F 16.4 °F 30.19 in WNW 6.0 mph 9.0 mph 81% 0.00 in 127.00 W/m2
18:09 21.2 °F 16.3 °F 30.19 in WNW 6.0 mph 9.0 mph 81% 0.00 in 107.00 W/m2
18:14 21.2 °F 16.3 °F 30.20 in WNW 6.0 mph 7.0 mph 81% 0.00 in 197.00 W/m2
18:19 21.4 °F 16.5 °F 30.20 in West 6.0 mph 7.0 mph 81% 0.00 in 183.00 W/m2
18:24 21.4 °F 16.5 °F 30.20 in West 5.0 mph 7.0 mph 81% 0.00 in 174.00 W/m2
18:29 21.3 °F 16.4 °F 30.20 in West 4.0 mph 7.0 mph 81% 0.00 in 153.00 W/m2
18:34 21.1 °F 16.2 °F 30.20 in West 5.0 mph 7.0 mph 81% 0.00 in 137.00 W/m2
18:39 21.0 °F 16.1 °F 30.20 in West 5.0 mph 7.0 mph 81% 0.00 in 123.00 W/m2
18:44 20.7 °F 15.8 °F 30.20 in West 4.0 mph 7.0 mph 81% 0.00 in 105.00 W/m2
18:49 20.4 °F 15.2 °F 30.20 in West 2.0 mph 7.0 mph 80% 0.00 in 91.00 W/m2
18:54 20.4 °F 15.5 °F 30.20 in WNW 3.0 mph 6.0 mph 81% 0.00 in 88.00 W/m2
18:59 20.1 °F 15.2 °F 30.20 in West 4.0 mph 5.0 mph 81% 0.00 in 74.00 W/m2
19:04 19.8 °F 14.9 °F 30.20 in WNW 5.0 mph 6.0 mph 81% 0.00 in 49.00 W/m2
19:09 19.7 °F 14.8 °F 30.20 in WNW 4.0 mph 7.0 mph 81% 0.00 in 33.00 W/m2
19:14 19.6 °F 15.0 °F 30.20 in NW 3.0 mph 7.0 mph 82% 0.00 in 26.00 W/m2
19:19 19.4 °F 14.8 °F 30.20 in NW 3.0 mph 5.0 mph 82% 0.00 in 21.00 W/m2
19:24 19.1 °F 14.2 °F 30.20 in NW 3.0 mph 4.0 mph 81% 0.00 in 18.00 W/m2
19:29 18.9 °F 14.3 °F 30.20 in WNW 4.0 mph 4.0 mph 82% 0.00 in 14.00 W/m2
19:34 18.6 °F 14.3 °F 30.21 in NW 3.0 mph 4.0 mph 83% 0.00 in 12.00 W/m2
19:39 18.3 °F 13.7 °F 30.21 in NW 4.0 mph 4.0 mph 82% 0.00 in 7.00 W/m2
19:44 17.9 °F 13.6 °F 30.21 in NW 3.0 mph 4.0 mph 83% 0.00 in 5.00 W/m2
19:49 17.6 °F 13.6 °F 30.21 in NW 3.0 mph 4.0 mph 84% 0.00 in 0.00 W/m2
19:54 17.4 °F 13.4 °F 30.21 in NW 3.0 mph 4.0 mph 84% 0.00 in 0.00 W/m2
19:59 17.1 °F 13.4 °F 30.22 in NW 3.0 mph 4.0 mph 85% 0.00 in 0.00 W/m2
20:04 16.9 °F 13.2 °F 30.22 in NW 3.0 mph 4.0 mph 85% 0.00 in 0.00 W/m2
20:09 16.9 °F 13.4 °F 30.22 in NW 5.0 mph 5.0 mph 86% 0.00 in 0.00 W/m2
20:14 16.6 °F 12.9 °F 30.22 in NW 3.0 mph 5.0 mph 85% 0.00 in 0.00 W/m2
20:19 16.2 °F 12.7 °F 30.22 in NW 3.0 mph 5.0 mph 86% 0.00 in 0.00 W/m2
20:24 15.9 °F 12.5 °F 30.22 in NW 5.0 mph 5.0 mph 86% 0.00 in 0.00 W/m2
20:29 15.5 °F 12.1 °F 30.23 in NNW 5.0 mph 6.0 mph 86% 0.00 in 0.00 W/m2
20:34 15.0 °F 11.6 °F 30.23 in NNW 4.0 mph 6.0 mph 86% 0.00 in 0.00 W/m2
20:39 14.7 °F 11.3 °F 30.23 in NNW 6.0 mph 6.0 mph 86% 0.00 in 0.00 W/m2
20:44 14.5 °F 11.3 °F 30.23 in NNW 5.0 mph 6.0 mph 87% 0.00 in 0.00 W/m2
20:49 14.2 °F 11.0 °F 30.23 in NNW 5.0 mph 6.0 mph 87% 0.00 in 0.00 W/m2
20:54 14.4 °F 11.5 °F 30.23 in NNW 5.0 mph 6.0 mph 88% 0.00 in 0.00 W/m2
20:59 14.5 °F 11.6 °F 30.23 in NNW 4.0 mph 6.0 mph 88% 0.00 in 0.00 W/m2
21:04 14.3 °F 11.1 °F 30.23 in NNW 5.0 mph 6.0 mph 87% 0.00 in 0.00 W/m2
21:09 14.2 °F 11.3 °F 30.24 in NNW 4.0 mph 5.0 mph 88% 0.00 in 0.00 W/m2
21:14 14.3 °F 11.4 °F 30.24 in NNW 3.0 mph 5.0 mph 88% 0.00 in 0.00 W/m2
21:19 14.5 °F 11.6 °F 30.24 in NW 3.0 mph 5.0 mph 88% 0.00 in 0.00 W/m2
21:24 14.8 °F 12.1 °F 30.24 in NW 3.0 mph 4.0 mph 89% 0.00 in 0.00 W/m2
21:29 14.8 °F 11.9 °F 30.24 in NW 2.0 mph 4.0 mph 88% 0.00 in 0.00 W/m2
21:34 14.6 °F 11.7 °F 30.25 in Calm   3.0 mph 88% 0.00 in 0.00 W/m2
21:39 14.3 °F 11.1 °F 30.25 in Calm   2.0 mph 87% 0.00 in 0.00 W/m2
21:44 13.8 °F 10.6 °F 30.25 in Calm     87% 0.00 in 0.00 W/m2
21:49 12.7 °F 9.3 °F 30.25 in Calm   1.0 mph 86% 0.00 in 0.00 W/m2
21:54 12.3 °F 9.4 °F 30.25 in Calm   1.0 mph 88% 0.00 in 0.00 W/m2
21:59 12.2 °F 9.3 °F 30.25 in NW 1.0 mph 1.0 mph 88% 0.00 in 0.00 W/m2
22:04 12.4 °F 9.8 °F 30.25 in Calm   1.0 mph 89% 0.00 in 0.00 W/m2
22:09 12.5 °F 9.9 °F 30.25 in Calm   1.0 mph 89% 0.00 in 0.00 W/m2
22:14 12.5 °F 9.9 °F 30.25 in Calm     89% 0.00 in 0.00 W/m2
22:19 12.8 °F 10.4 °F 30.25 in Calm     90% 0.00 in 0.00 W/m2
22:24 13.0 °F 10.6 °F 30.26 in Calm   1.0 mph 90% 0.00 in 0.00 W/m2
22:29 13.1 °F 10.7 °F 30.26 in NW 1.0 mph 2.0 mph 90% 0.00 in 0.00 W/m2
22:34 12.3 °F 9.4 °F 30.26 in SW 2.0 mph 3.0 mph 88% 0.00 in 0.00 W/m2
22:39 11.8 °F 9.2 °F 30.26 in South 1.0 mph 3.0 mph 89% 0.00 in 0.00 W/m2
22:44 11.9 °F 9.5 °F 30.26 in South 2.0 mph 3.0 mph 90% 0.00 in 0.00 W/m2
22:49 12.1 °F 9.7 °F 30.27 in South 2.0 mph 3.0 mph 90% 0.00 in 0.00 W/m2
22:54 12.2 °F 9.8 °F 30.27 in South 1.0 mph 3.0 mph 90% 0.00 in 0.00 W/m2
22:59 12.1 °F 9.7 °F 30.27 in South 2.0 mph 3.0 mph 90% 0.00 in 0.00 W/m2
23:04 11.9 °F 9.5 °F 30.27 in South 2.0 mph 3.0 mph 90% 0.00 in 0.00 W/m2
23:09 11.7 °F 9.3 °F 30.27 in South 2.0 mph 2.0 mph 90% 0.00 in 0.00 W/m2
23:14 11.8 °F 9.4 °F 30.28 in South 2.0 mph 3.0 mph 90% 0.00 in 0.00 W/m2
23:19 12.1 °F 10.0 °F 30.28 in South 1.0 mph 3.0 mph 91% 0.00 in 0.00 W/m2
23:24 12.3 °F 10.2 °F 30.28 in Calm   2.0 mph 91% 0.00 in 0.00 W/m2
23:29 12.2 °F 10.1 °F 30.28 in Calm   2.0 mph 91% 0.00 in 0.00 W/m2
23:34 12.0 °F 9.6 °F 30.28 in Calm     90% 0.00 in 0.00 W/m2
23:39 11.9 °F 9.5 °F 30.28 in Calm     90% 0.00 in 0.00 W/m2
23:44 12.0 °F 9.9 °F 30.29 in Calm   1.0 mph 91% 0.00 in 0.00 W/m2
23:49 12.2 °F 10.1 °F 30.29 in South 1.0 mph 2.0 mph 91% 0.00 in 0.00 W/m2
23:54 12.1 °F 10.0 °F 30.29 in Calm   2.0 mph 91% 0.00 in 0.00 W/m2
23:59 11.7 °F 9.3 °F 30.29 in Calm   1.0 mph 90% 0.00 in 0.00 W/m2
Bismarck, North Dakota, USA
Compliments of Weather Underground - 4 mb